sensor_id;sensor_type;location;lat;lon;timestamp;P1;durP1;ratioP1;P2;durP2;ratioP2
8104;SDS011;4095;48.942;9.104;2023-05-07T00:01:02;4.47;;;3.90;;
8104;SDS011;4095;48.942;9.104;2023-05-07T00:03:27;4.87;;;4.13;;
8104;SDS011;4095;48.942;9.104;2023-05-07T00:05:53;6.03;;;4.07;;
8104;SDS011;4095;48.942;9.104;2023-05-07T00:08:19;4.37;;;3.97;;
8104;SDS011;4095;48.942;9.104;2023-05-07T00:10:45;5.40;;;3.80;;
8104;SDS011;4095;48.942;9.104;2023-05-07T00:13:11;4.57;;;3.90;;
8104;SDS011;4095;48.942;9.104;2023-05-07T00:15:37;4.50;;;4.10;;
8104;SDS011;4095;48.942;9.104;2023-05-07T00:18:02;5.77;;;4.03;;
8104;SDS011;4095;48.942;9.104;2023-05-07T00:20:28;6.07;;;3.80;;
8104;SDS011;4095;48.942;9.104;2023-05-07T00:22:54;7.00;;;3.77;;
8104;SDS011;4095;48.942;9.104;2023-05-07T00:25:19;4.73;;;4.00;;
8104;SDS011;4095;48.942;9.104;2023-05-07T00:27:45;4.43;;;4.03;;
8104;SDS011;4095;48.942;9.104;2023-05-07T00:30:11;5.10;;;4.23;;
8104;SDS011;4095;48.942;9.104;2023-05-07T00:32:37;5.87;;;3.93;;
8104;SDS011;4095;48.942;9.104;2023-05-07T00:35:03;4.93;;;4.30;;
8104;SDS011;4095;48.942;9.104;2023-05-07T00:37:29;5.37;;;3.97;;
8104;SDS011;4095;48.942;9.104;2023-05-07T00:39:56;4.77;;;3.83;;
8104;SDS011;4095;48.942;9.104;2023-05-07T00:42:21;4.47;;;4.07;;
8104;SDS011;4095;48.942;9.104;2023-05-07T00:44:47;4.40;;;3.90;;
8104;SDS011;4095;48.942;9.104;2023-05-07T00:47:13;5.87;;;4.50;;
8104;SDS011;4095;48.942;9.104;2023-05-07T00:49:43;4.70;;;4.20;;
8104;SDS011;4095;48.942;9.104;2023-05-07T00:52:15;5.13;;;4.13;;
8104;SDS011;4095;48.942;9.104;2023-05-07T00:54:42;5.93;;;4.23;;
8104;SDS011;4095;48.942;9.104;2023-05-07T00:57:09;4.30;;;3.90;;
8104;SDS011;4095;48.942;9.104;2023-05-07T00:59:36;4.73;;;4.07;;
8104;SDS011;4095;48.942;9.104;2023-05-07T01:02:02;5.07;;;4.30;;
8104;SDS011;4095;48.942;9.104;2023-05-07T01:04:28;4.87;;;4.30;;
8104;SDS011;4095;48.942;9.104;2023-05-07T01:06:54;5.70;;;4.37;;
8104;SDS011;4095;48.942;9.104;2023-05-07T01:09:21;4.97;;;4.13;;
8104;SDS011;4095;48.942;9.104;2023-05-07T01:11:51;5.57;;;4.40;;
8104;SDS011;4095;48.942;9.104;2023-05-07T01:14:18;4.77;;;3.90;;
8104;SDS011;4095;48.942;9.104;2023-05-07T01:16:45;5.07;;;4.47;;
8104;SDS011;4095;48.942;9.104;2023-05-07T01:19:11;4.77;;;4.30;;
8104;SDS011;4095;48.942;9.104;2023-05-07T01:21:39;4.53;;;4.13;;
8104;SDS011;4095;48.942;9.104;2023-05-07T01:24:10;6.23;;;4.43;;
8104;SDS011;4095;48.942;9.104;2023-05-07T01:26:36;5.53;;;4.37;;
8104;SDS011;4095;48.942;9.104;2023-05-07T01:29:02;5.03;;;4.53;;
8104;SDS011;4095;48.942;9.104;2023-05-07T01:31:28;4.70;;;4.30;;
8104;SDS011;4095;48.942;9.104;2023-05-07T01:33:54;4.67;;;4.23;;
8104;SDS011;4095;48.942;9.104;2023-05-07T01:36:22;4.83;;;4.20;;
8104;SDS011;4095;48.942;9.104;2023-05-07T01:38:50;5.47;;;3.90;;
8104;SDS011;4095;48.942;9.104;2023-05-07T01:41:17;5.30;;;4.73;;
8104;SDS011;4095;48.942;9.104;2023-05-07T01:43:44;5.47;;;4.67;;
8104;SDS011;4095;48.942;9.104;2023-05-07T01:46:12;5.33;;;4.83;;
8104;SDS011;4095;48.942;9.104;2023-05-07T01:48:39;5.00;;;4.50;;
8104;SDS011;4095;48.942;9.104;2023-05-07T01:51:05;5.33;;;4.77;;
8104;SDS011;4095;48.942;9.104;2023-05-07T01:53:36;5.23;;;4.77;;
8104;SDS011;4095;48.942;9.104;2023-05-07T01:56:02;6.00;;;4.90;;
8104;SDS011;4095;48.942;9.104;2023-05-07T01:58:28;5.60;;;5.00;;
8104;SDS011;4095;48.942;9.104;2023-05-07T02:00:54;6.07;;;5.43;;
8104;SDS011;4095;48.942;9.104;2023-05-07T02:03:19;5.17;;;4.67;;
8104;SDS011;4095;48.942;9.104;2023-05-07T02:05:45;6.37;;;4.60;;
8104;SDS011;4095;48.942;9.104;2023-05-07T02:08:10;4.60;;;4.10;;
8104;SDS011;4095;48.942;9.104;2023-05-07T02:10:36;5.13;;;4.60;;
8104;SDS011;4095;48.942;9.104;2023-05-07T02:13:01;5.97;;;4.20;;
8104;SDS011;4095;48.942;9.104;2023-05-07T02:15:27;5.63;;;4.10;;
8104;SDS011;4095;48.942;9.104;2023-05-07T02:18:03;5.00;;;4.40;;
8104;SDS011;4095;48.942;9.104;2023-05-07T02:20:31;5.30;;;3.93;;
8104;SDS011;4095;48.942;9.104;2023-05-07T02:22:56;6.90;;;4.50;;
8104;SDS011;4095;48.942;9.104;2023-05-07T02:25:22;6.27;;;4.50;;
8104;SDS011;4095;48.942;9.104;2023-05-07T02:27:47;5.83;;;4.30;;
8104;SDS011;4095;48.942;9.104;2023-05-07T02:30:13;4.50;;;3.97;;
8104;SDS011;4095;48.942;9.104;2023-05-07T02:32:39;6.80;;;4.70;;
8104;SDS011;4095;48.942;9.104;2023-05-07T02:35:05;4.20;;;3.80;;
8104;SDS011;4095;48.942;9.104;2023-05-07T02:37:31;5.80;;;3.87;;
8104;SDS011;4095;48.942;9.104;2023-05-07T02:39:56;5.37;;;3.83;;
8104;SDS011;4095;48.942;9.104;2023-05-07T02:42:22;5.67;;;4.30;;
8104;SDS011;4095;48.942;9.104;2023-05-07T02:44:47;6.10;;;4.30;;
8104;SDS011;4095;48.942;9.104;2023-05-07T02:47:13;4.37;;;3.93;;
8104;SDS011;4095;48.942;9.104;2023-05-07T02:49:40;5.03;;;4.03;;
8104;SDS011;4095;48.942;9.104;2023-05-07T02:52:06;3.70;;;3.40;;
8104;SDS011;4095;48.942;9.104;2023-05-07T02:54:32;4.83;;;4.20;;
8104;SDS011;4095;48.942;9.104;2023-05-07T02:56:57;5.53;;;3.93;;
8104;SDS011;4095;48.942;9.104;2023-05-07T02:59:23;4.30;;;3.90;;
8104;SDS011;4095;48.942;9.104;2023-05-07T03:01:51;6.97;;;3.87;;
8104;SDS011;4095;48.942;9.104;2023-05-07T03:04:16;4.43;;;4.03;;
8104;SDS011;4095;48.942;9.104;2023-05-07T03:06:42;4.80;;;3.60;;
8104;SDS011;4095;48.942;9.104;2023-05-07T03:09:07;4.30;;;3.80;;
8104;SDS011;4095;48.942;9.104;2023-05-07T03:11:33;4.87;;;3.70;;
8104;SDS011;4095;48.942;9.104;2023-05-07T03:14:00;5.20;;;3.90;;
8104;SDS011;4095;48.942;9.104;2023-05-07T03:16:26;4.83;;;3.50;;
8104;SDS011;4095;48.942;9.104;2023-05-07T03:18:52;4.30;;;3.70;;
8104;SDS011;4095;48.942;9.104;2023-05-07T03:21:17;5.00;;;4.40;;
8104;SDS011;4095;48.942;9.104;2023-05-07T03:23:43;4.40;;;3.97;;
8104;SDS011;4095;48.942;9.104;2023-05-07T03:26:08;5.93;;;4.10;;
8104;SDS011;4095;48.942;9.104;2023-05-07T03:28:34;4.40;;;4.00;;
8104;SDS011;4095;48.942;9.104;2023-05-07T03:31:00;4.83;;;4.33;;
8104;SDS011;4095;48.942;9.104;2023-05-07T03:33:25;4.10;;;3.80;;
8104;SDS011;4095;48.942;9.104;2023-05-07T03:35:52;4.80;;;4.20;;
8104;SDS011;4095;48.942;9.104;2023-05-07T03:38:18;4.63;;;4.03;;
8104;SDS011;4095;48.942;9.104;2023-05-07T03:40:43;5.00;;;4.40;;
8104;SDS011;4095;48.942;9.104;2023-05-07T03:43:09;6.00;;;4.10;;
8104;SDS011;4095;48.942;9.104;2023-05-07T03:45:35;5.20;;;4.03;;
8104;SDS011;4095;48.942;9.104;2023-05-07T03:48:00;4.53;;;4.10;;
8104;SDS011;4095;48.942;9.104;2023-05-07T03:50:26;5.43;;;4.23;;
8104;SDS011;4095;48.942;9.104;2023-05-07T03:52:51;7.30;;;3.97;;
8104;SDS011;4095;48.942;9.104;2023-05-07T03:55:17;4.70;;;4.20;;
8104;SDS011;4095;48.942;9.104;2023-05-07T03:57:43;4.73;;;4.17;;
8104;SDS011;4095;48.942;9.104;2023-05-07T04:00:08;4.77;;;4.37;;
8104;SDS011;4095;48.942;9.104;2023-05-07T04:02:34;4.70;;;4.30;;
8104;SDS011;4095;48.942;9.104;2023-05-07T04:05:00;4.87;;;4.40;;
8104;SDS011;4095;48.942;9.104;2023-05-07T04:07:26;4.53;;;4.00;;
8104;SDS011;4095;48.942;9.104;2023-05-07T04:09:51;6.70;;;4.87;;
8104;SDS011;4095;48.942;9.104;2023-05-07T04:12:17;5.13;;;4.63;;
8104;SDS011;4095;48.942;9.104;2023-05-07T04:14:42;5.40;;;4.40;;
8104;SDS011;4095;48.942;9.104;2023-05-07T04:17:08;5.20;;;4.67;;
8104;SDS011;4095;48.942;9.104;2023-05-07T04:19:35;5.63;;;4.80;;
8104;SDS011;4095;48.942;9.104;2023-05-07T04:22:01;5.60;;;4.87;;
8104;SDS011;4095;48.942;9.104;2023-05-07T04:24:27;5.57;;;4.80;;
8104;SDS011;4095;48.942;9.104;2023-05-07T04:26:52;6.37;;;4.80;;
8104;SDS011;4095;48.942;9.104;2023-05-07T04:29:18;4.80;;;4.30;;
8104;SDS011;4095;48.942;9.104;2023-05-07T04:31:44;4.60;;;4.13;;
8104;SDS011;4095;48.942;9.104;2023-05-07T04:34:10;5.27;;;4.77;;
8104;SDS011;4095;48.942;9.104;2023-05-07T04:36:36;4.57;;;4.17;;
8104;SDS011;4095;48.942;9.104;2023-05-07T04:39:05;5.27;;;4.40;;
8104;SDS011;4095;48.942;9.104;2023-05-07T04:41:31;5.33;;;4.83;;
8104;SDS011;4095;48.942;9.104;2023-05-07T04:43:57;6.17;;;5.07;;
8104;SDS011;4095;48.942;9.104;2023-05-07T04:46:23;7.03;;;5.27;;
8104;SDS011;4095;48.942;9.104;2023-05-07T04:48:49;5.50;;;5.00;;
8104;SDS011;4095;48.942;9.104;2023-05-07T04:51:15;5.30;;;4.77;;
8104;SDS011;4095;48.942;9.104;2023-05-07T04:53:41;5.33;;;4.83;;
8104;SDS011;4095;48.942;9.104;2023-05-07T04:56:08;10.27;;;4.70;;
8104;SDS011;4095;48.942;9.104;2023-05-07T04:58:33;5.27;;;4.63;;
8104;SDS011;4095;48.942;9.104;2023-05-07T05:00:59;5.97;;;4.40;;
8104;SDS011;4095;48.942;9.104;2023-05-07T05:03:25;4.80;;;4.40;;
8104;SDS011;4095;48.942;9.104;2023-05-07T05:05:51;5.23;;;4.70;;
8104;SDS011;4095;48.942;9.104;2023-05-07T05:08:17;4.53;;;4.13;;
8104;SDS011;4095;48.942;9.104;2023-05-07T05:10:43;6.50;;;4.40;;
8104;SDS011;4095;48.942;9.104;2023-05-07T05:13:09;7.10;;;4.67;;
8104;SDS011;4095;48.942;9.104;2023-05-07T05:15:37;5.60;;;4.30;;
8104;SDS011;4095;48.942;9.104;2023-05-07T05:18:03;4.83;;;4.43;;
8104;SDS011;4095;48.942;9.104;2023-05-07T05:20:29;4.93;;;4.13;;
8104;SDS011;4095;48.942;9.104;2023-05-07T05:22:54;4.83;;;4.30;;
8104;SDS011;4095;48.942;9.104;2023-05-07T05:25:20;6.00;;;4.50;;
8104;SDS011;4095;48.942;9.104;2023-05-07T05:27:46;4.80;;;4.40;;
8104;SDS011;4095;48.942;9.104;2023-05-07T05:30:11;5.40;;;4.90;;
8104;SDS011;4095;48.942;9.104;2023-05-07T05:32:37;6.63;;;5.40;;
8104;SDS011;4095;48.942;9.104;2023-05-07T05:35:03;6.60;;;5.80;;
8104;SDS011;4095;48.942;9.104;2023-05-07T05:37:29;6.10;;;5.53;;
8104;SDS011;4095;48.942;9.104;2023-05-07T05:39:56;6.67;;;5.70;;
8104;SDS011;4095;48.942;9.104;2023-05-07T05:42:22;7.33;;;5.97;;
8104;SDS011;4095;48.942;9.104;2023-05-07T05:44:48;7.43;;;5.73;;
8104;SDS011;4095;48.942;9.104;2023-05-07T05:47:13;6.97;;;6.20;;
8104;SDS011;4095;48.942;9.104;2023-05-07T05:49:39;7.13;;;5.50;;
8104;SDS011;4095;48.942;9.104;2023-05-07T05:52:05;5.60;;;4.90;;
8104;SDS011;4095;48.942;9.104;2023-05-07T05:54:30;8.73;;;6.03;;
8104;SDS011;4095;48.942;9.104;2023-05-07T05:56:56;6.70;;;5.57;;
8104;SDS011;4095;48.942;9.104;2023-05-07T05:59:21;6.20;;;5.60;;
8104;SDS011;4095;48.942;9.104;2023-05-07T06:01:47;6.67;;;5.17;;
8104;SDS011;4095;48.942;9.104;2023-05-07T06:04:13;7.73;;;5.97;;
8104;SDS011;4095;48.942;9.104;2023-05-07T06:06:39;6.27;;;5.00;;
8104;SDS011;4095;48.942;9.104;2023-05-07T06:09:04;7.10;;;5.70;;
8104;SDS011;4095;48.942;9.104;2023-05-07T06:11:31;5.73;;;5.10;;
8104;SDS011;4095;48.942;9.104;2023-05-07T06:13:56;6.40;;;5.60;;
8104;SDS011;4095;48.942;9.104;2023-05-07T06:16:22;5.90;;;5.30;;
8104;SDS011;4095;48.942;9.104;2023-05-07T06:18:49;5.70;;;5.10;;
8104;SDS011;4095;48.942;9.104;2023-05-07T06:21:15;6.20;;;5.30;;
8104;SDS011;4095;48.942;9.104;2023-05-07T06:23:40;5.47;;;4.93;;
8104;SDS011;4095;48.942;9.104;2023-05-07T06:26:06;6.47;;;5.40;;
8104;SDS011;4095;48.942;9.104;2023-05-07T06:28:32;5.43;;;4.77;;
8104;SDS011;4095;48.942;9.104;2023-05-07T06:33:39;7.20;;;5.00;;
8104;SDS011;4095;48.942;9.104;2023-05-07T06:36:05;6.83;;;4.63;;
8104;SDS011;4095;48.942;9.104;2023-05-07T06:38:31;7.80;;;5.00;;
8104;SDS011;4095;48.942;9.104;2023-05-07T06:40:57;5.13;;;4.63;;
8104;SDS011;4095;48.942;9.104;2023-05-07T06:43:22;6.93;;;4.80;;
8104;SDS011;4095;48.942;9.104;2023-05-07T06:45:48;5.17;;;4.60;;
8104;SDS011;4095;48.942;9.104;2023-05-07T06:48:13;5.20;;;4.70;;
8104;SDS011;4095;48.942;9.104;2023-05-07T06:50:39;5.10;;;4.60;;
8104;SDS011;4095;48.942;9.104;2023-05-07T06:53:06;4.93;;;4.40;;
8104;SDS011;4095;48.942;9.104;2023-05-07T06:55:32;6.83;;;6.23;;
8104;SDS011;4095;48.942;9.104;2023-05-07T06:57:57;5.10;;;4.70;;
8104;SDS011;4095;48.942;9.104;2023-05-07T07:00:25;6.07;;;4.50;;
8104;SDS011;4095;48.942;9.104;2023-05-07T07:02:51;4.97;;;4.47;;
8104;SDS011;4095;48.942;9.104;2023-05-07T07:05:18;4.97;;;4.57;;
8104;SDS011;4095;48.942;9.104;2023-05-07T07:07:43;5.67;;;4.63;;
8104;SDS011;4095;48.942;9.104;2023-05-07T07:10:09;4.10;;;3.70;;
8104;SDS011;4095;48.942;9.104;2023-05-07T07:12:35;4.40;;;3.90;;
8104;SDS011;4095;48.942;9.104;2023-05-07T07:15:00;4.53;;;4.00;;
8104;SDS011;4095;48.942;9.104;2023-05-07T07:17:27;4.03;;;3.73;;
8104;SDS011;4095;48.942;9.104;2023-05-07T07:19:53;3.77;;;3.47;;
8104;SDS011;4095;48.942;9.104;2023-05-07T07:22:19;3.50;;;3.20;;
8104;SDS011;4095;48.942;9.104;2023-05-07T07:24:44;3.70;;;3.33;;
8104;SDS011;4095;48.942;9.104;2023-05-07T07:27:10;3.50;;;2.97;;
8104;SDS011;4095;48.942;9.104;2023-05-07T07:29:35;3.47;;;3.17;;
8104;SDS011;4095;48.942;9.104;2023-05-07T07:32:01;3.53;;;3.00;;
8104;SDS011;4095;48.942;9.104;2023-05-07T07:34:27;3.40;;;3.03;;
8104;SDS011;4095;48.942;9.104;2023-05-07T07:36:52;4.23;;;3.00;;
8104;SDS011;4095;48.942;9.104;2023-05-07T07:39:18;3.93;;;2.73;;
8104;SDS011;4095;48.942;9.104;2023-05-07T07:41:43;3.67;;;2.60;;
8104;SDS011;4095;48.942;9.104;2023-05-07T07:44:09;3.00;;;2.60;;
8104;SDS011;4095;48.942;9.104;2023-05-07T07:46:37;6.33;;;2.63;;
8104;SDS011;4095;48.942;9.104;2023-05-07T07:49:03;3.60;;;2.70;;
8104;SDS011;4095;48.942;9.104;2023-05-07T07:51:28;2.70;;;2.23;;
8104;SDS011;4095;48.942;9.104;2023-05-07T07:53:55;2.87;;;2.30;;
8104;SDS011;4095;48.942;9.104;2023-05-07T07:56:22;3.23;;;2.33;;
8104;SDS011;4095;48.942;9.104;2023-05-07T07:58:48;4.03;;;2.40;;
8104;SDS011;4095;48.942;9.104;2023-05-07T08:01:14;2.43;;;1.90;;
8104;SDS011;4095;48.942;9.104;2023-05-07T08:03:39;2.37;;;2.17;;
8104;SDS011;4095;48.942;9.104;2023-05-07T08:06:06;2.37;;;2.10;;
8104;SDS011;4095;48.942;9.104;2023-05-07T08:08:32;2.60;;;2.40;;
8104;SDS011;4095;48.942;9.104;2023-05-07T08:10:58;4.00;;;2.10;;
8104;SDS011;4095;48.942;9.104;2023-05-07T08:13:23;5.10;;;4.60;;
8104;SDS011;4095;48.942;9.104;2023-05-07T08:15:49;2.90;;;2.43;;
8104;SDS011;4095;48.942;9.104;2023-05-07T08:18:15;2.43;;;2.10;;
8104;SDS011;4095;48.942;9.104;2023-05-07T08:20:40;4.60;;;2.77;;
8104;SDS011;4095;48.942;9.104;2023-05-07T08:23:06;4.03;;;2.20;;
8104;SDS011;4095;48.942;9.104;2023-05-07T08:25:35;3.77;;;2.50;;
8104;SDS011;4095;48.942;9.104;2023-05-07T08:28:02;2.70;;;2.50;;
8104;SDS011;4095;48.942;9.104;2023-05-07T08:30:28;2.63;;;2.30;;
8104;SDS011;4095;48.942;9.104;2023-05-07T08:32:54;3.03;;;2.40;;
8104;SDS011;4095;48.942;9.104;2023-05-07T08:35:19;3.00;;;2.40;;
8104;SDS011;4095;48.942;9.104;2023-05-07T08:37:45;3.30;;;2.50;;
8104;SDS011;4095;48.942;9.104;2023-05-07T08:40:10;3.40;;;2.33;;
8104;SDS011;4095;48.942;9.104;2023-05-07T08:42:36;2.67;;;2.33;;
8104;SDS011;4095;48.942;9.104;2023-05-07T08:45:03;3.73;;;2.60;;
8104;SDS011;4095;48.942;9.104;2023-05-07T08:47:34;2.33;;;2.03;;
8104;SDS011;4095;48.942;9.104;2023-05-07T08:50:05;2.60;;;2.40;;
8104;SDS011;4095;48.942;9.104;2023-05-07T08:52:31;2.83;;;2.10;;
8104;SDS011;4095;48.942;9.104;2023-05-07T08:54:57;3.00;;;2.30;;
8104;SDS011;4095;48.942;9.104;2023-05-07T08:57:24;2.90;;;2.23;;
8104;SDS011;4095;48.942;9.104;2023-05-07T08:59:49;2.90;;;2.40;;
8104;SDS011;4095;48.942;9.104;2023-05-07T09:02:15;3.33;;;2.20;;
8104;SDS011;4095;48.942;9.104;2023-05-07T09:04:41;4.47;;;2.80;;
8104;SDS011;4095;48.942;9.104;2023-05-07T09:07:07;3.60;;;2.80;;
8104;SDS011;4095;48.942;9.104;2023-05-07T09:09:33;4.33;;;3.20;;
8104;SDS011;4095;48.942;9.104;2023-05-07T09:11:59;3.57;;;2.97;;
8104;SDS011;4095;48.942;9.104;2023-05-07T09:14:25;4.90;;;3.00;;
8104;SDS011;4095;48.942;9.104;2023-05-07T09:16:54;4.43;;;2.40;;
8104;SDS011;4095;48.942;9.104;2023-05-07T09:19:23;3.00;;;2.50;;
8104;SDS011;4095;48.942;9.104;2023-05-07T09:21:49;3.73;;;2.80;;
8104;SDS011;4095;48.942;9.104;2023-05-07T09:24:22;3.20;;;2.40;;
8104;SDS011;4095;48.942;9.104;2023-05-07T09:26:48;4.17;;;2.67;;
8104;SDS011;4095;48.942;9.104;2023-05-07T09:29:15;3.90;;;2.70;;
8104;SDS011;4095;48.942;9.104;2023-05-07T09:31:42;2.90;;;2.40;;
8104;SDS011;4095;48.942;9.104;2023-05-07T09:34:07;3.30;;;2.40;;
8104;SDS011;4095;48.942;9.104;2023-05-07T09:36:33;3.10;;;2.63;;
8104;SDS011;4095;48.942;9.104;2023-05-07T09:38:59;4.47;;;2.63;;
8104;SDS011;4095;48.942;9.104;2023-05-07T09:41:25;3.17;;;2.40;;
8104;SDS011;4095;48.942;9.104;2023-05-07T09:43:54;4.28;;;2.30;;
8104;SDS011;4095;48.942;9.104;2023-05-07T09:46:22;2.92;;;2.20;;
8104;SDS011;4095;48.942;9.104;2023-05-07T09:48:52;3.45;;;2.22;;
8104;SDS011;4095;48.942;9.104;2023-05-07T09:51:24;3.22;;;2.17;;
8104;SDS011;4095;48.942;9.104;2023-05-07T09:53:53;2.88;;;1.80;;
8104;SDS011;4095;48.942;9.104;2023-05-07T09:56:19;3.42;;;2.13;;
8104;SDS011;4095;48.942;9.104;2023-05-07T09:58:45;2.83;;;2.00;;
8104;SDS011;4095;48.942;9.104;2023-05-07T10:01:12;5.25;;;2.40;;
8104;SDS011;4095;48.942;9.104;2023-05-07T10:03:39;2.65;;;1.90;;
8104;SDS011;4095;48.942;9.104;2023-05-07T10:06:08;2.03;;;1.83;;
8104;SDS011;4095;48.942;9.104;2023-05-07T10:08:35;2.65;;;2.03;;
8104;SDS011;4095;48.942;9.104;2023-05-07T10:11:01;2.90;;;2.13;;
8104;SDS011;4095;48.942;9.104;2023-05-07T10:13:29;2.75;;;1.98;;
8104;SDS011;4095;48.942;9.104;2023-05-07T10:15:55;3.90;;;2.03;;
8104;SDS011;4095;48.942;9.104;2023-05-07T10:18:21;2.60;;;2.05;;
8104;SDS011;4095;48.942;9.104;2023-05-07T10:20:48;2.25;;;1.90;;
8104;SDS011;4095;48.942;9.104;2023-05-07T10:23:18;2.33;;;1.85;;
8104;SDS011;4095;48.942;9.104;2023-05-07T10:25:48;2.78;;;1.90;;
8104;SDS011;4095;48.942;9.104;2023-05-07T10:28:13;2.00;;;1.85;;
8104;SDS011;4095;48.942;9.104;2023-05-07T10:33:40;2.38;;;2.08;;
8104;SDS011;4095;48.942;9.104;2023-05-07T10:36:09;4.07;;;2.20;;
8104;SDS011;4095;48.942;9.104;2023-05-07T10:38:35;3.67;;;2.00;;
8104;SDS011;4095;48.942;9.104;2023-05-07T10:41:01;2.75;;;1.90;;
8104;SDS011;4095;48.942;9.104;2023-05-07T10:43:42;4.13;;;2.13;;
8104;SDS011;4095;48.942;9.104;2023-05-07T10:46:17;2.50;;;1.80;;
8104;SDS011;4095;48.942;9.104;2023-05-07T10:51:28;3.60;;;2.20;;
8104;SDS011;4095;48.942;9.104;2023-05-07T10:56:39;3.00;;;2.00;;
8104;SDS011;4095;48.942;9.104;2023-05-07T11:04:18;3.40;;;2.10;;
8104;SDS011;4095;48.942;9.104;2023-05-07T11:15:04;2.00;;;1.80;;
8104;SDS011;4095;48.942;9.104;2023-05-07T11:17:54;3.63;;;1.90;;
8104;SDS011;4095;48.942;9.104;2023-05-07T11:26:02;2.67;;;1.83;;
8104;SDS011;4095;48.942;9.104;2023-05-07T11:28:50;2.38;;;2.03;;
8104;SDS011;4095;48.942;9.104;2023-05-07T11:31:20;2.63;;;1.67;;
8104;SDS011;4095;48.942;9.104;2023-05-07T11:33:47;1.80;;;1.70;;
8104;SDS011;4095;48.942;9.104;2023-05-07T11:36:13;2.38;;;1.42;;
8104;SDS011;4095;48.942;9.104;2023-05-07T11:38:39;2.97;;;1.88;;
8104;SDS011;4095;48.942;9.104;2023-05-07T11:41:05;3.60;;;1.88;;
8104;SDS011;4095;48.942;9.104;2023-05-07T11:43:32;2.58;;;1.88;;
8104;SDS011;4095;48.942;9.104;2023-05-07T11:48:35;2.15;;;1.77;;
8104;SDS011;4095;48.942;9.104;2023-05-07T11:51:02;2.65;;;1.65;;
8104;SDS011;4095;48.942;9.104;2023-05-07T11:53:37;3.38;;;1.70;;
8104;SDS011;4095;48.942;9.104;2023-05-07T11:56:12;2.13;;;1.67;;
8104;SDS011;4095;48.942;9.104;2023-05-07T11:58:40;2.17;;;1.48;;
8104;SDS011;4095;48.942;9.104;2023-05-07T12:01:10;3.70;;;1.60;;
8104;SDS011;4095;48.942;9.104;2023-05-07T12:03:37;1.95;;;1.60;;
8104;SDS011;4095;48.942;9.104;2023-05-07T12:06:07;1.90;;;1.65;;
8104;SDS011;4095;48.942;9.104;2023-05-07T12:08:35;3.38;;;1.70;;
8104;SDS011;4095;48.942;9.104;2023-05-07T12:11:03;2.13;;;1.70;;
8104;SDS011;4095;48.942;9.104;2023-05-07T12:13:31;2.08;;;1.60;;
8104;SDS011;4095;48.942;9.104;2023-05-07T12:15:57;1.70;;;1.50;;
8104;SDS011;4095;48.942;9.104;2023-05-07T12:18:23;2.28;;;1.42;;
8104;SDS011;4095;48.942;9.104;2023-05-07T12:20:49;2.53;;;1.60;;
8104;SDS011;4095;48.942;9.104;2023-05-07T12:23:15;2.35;;;1.70;;
8104;SDS011;4095;48.942;9.104;2023-05-07T12:25:42;2.75;;;1.60;;
8104;SDS011;4095;48.942;9.104;2023-05-07T12:28:13;1.77;;;1.50;;
8104;SDS011;4095;48.942;9.104;2023-05-07T12:30:40;1.67;;;1.52;;
8104;SDS011;4095;48.942;9.104;2023-05-07T12:33:08;2.78;;;1.77;;
8104;SDS011;4095;48.942;9.104;2023-05-07T12:35:39;1.77;;;1.48;;
8104;SDS011;4095;48.942;9.104;2023-05-07T12:38:13;3.13;;;1.52;;
8104;SDS011;4095;48.942;9.104;2023-05-07T12:40:40;2.22;;;1.50;;
8104;SDS011;4095;48.942;9.104;2023-05-07T12:43:06;2.63;;;1.50;;
8104;SDS011;4095;48.942;9.104;2023-05-07T12:45:36;2.63;;;1.80;;
8104;SDS011;4095;48.942;9.104;2023-05-07T12:48:04;2.50;;;1.40;;
8104;SDS011;4095;48.942;9.104;2023-05-07T12:50:33;1.40;;;1.25;;
8104;SDS011;4095;48.942;9.104;2023-05-07T12:52:58;1.92;;;1.50;;
8104;SDS011;4095;48.942;9.104;2023-05-07T12:55:24;3.10;;;1.60;;
8104;SDS011;4095;48.942;9.104;2023-05-07T12:57:51;1.90;;;1.50;;
8104;SDS011;4095;48.942;9.104;2023-05-07T13:00:17;2.95;;;1.45;;
8104;SDS011;4095;48.942;9.104;2023-05-07T13:02:58;3.08;;;1.60;;
8104;SDS011;4095;48.942;9.104;2023-05-07T13:05:23;1.85;;;1.73;;
8104;SDS011;4095;48.942;9.104;2023-05-07T13:07:52;2.17;;;1.70;;
8104;SDS011;4095;48.942;9.104;2023-05-07T13:10:19;2.65;;;1.85;;
8104;SDS011;4095;48.942;9.104;2023-05-07T13:12:46;2.25;;;1.80;;
8104;SDS011;4095;48.942;9.104;2023-05-07T13:15:11;1.83;;;1.67;;
8104;SDS011;4095;48.942;9.104;2023-05-07T13:17:37;5.10;;;2.35;;
8104;SDS011;4095;48.942;9.104;2023-05-07T13:20:02;5.10;;;2.80;;
8104;SDS011;4095;48.942;9.104;2023-05-07T13:22:28;2.47;;;2.20;;
8104;SDS011;4095;48.942;9.104;2023-05-07T13:24:54;3.47;;;1.90;;
8104;SDS011;4095;48.942;9.104;2023-05-07T13:27:20;1.92;;;1.70;;
8104;SDS011;4095;48.942;9.104;2023-05-07T13:29:45;1.88;;;1.60;;
8104;SDS011;4095;48.942;9.104;2023-05-07T13:32:11;4.18;;;1.67;;
8104;SDS011;4095;48.942;9.104;2023-05-07T13:34:36;1.95;;;1.55;;
8104;SDS011;4095;48.942;9.104;2023-05-07T13:37:02;2.47;;;1.63;;
8104;SDS011;4095;48.942;9.104;2023-05-07T13:39:28;2.30;;;1.50;;
8104;SDS011;4095;48.942;9.104;2023-05-07T13:41:53;6.35;;;1.45;;
8104;SDS011;4095;48.942;9.104;2023-05-07T13:44:19;1.50;;;1.20;;
8104;SDS011;4095;48.942;9.104;2023-05-07T13:46:45;1.90;;;1.13;;
8104;SDS011;4095;48.942;9.104;2023-05-07T13:49:11;2.07;;;1.03;;
8104;SDS011;4095;48.942;9.104;2023-05-07T13:51:37;2.83;;;1.13;;
8104;SDS011;4095;48.942;9.104;2023-05-07T13:54:03;1.90;;;1.50;;
8104;SDS011;4095;48.942;9.104;2023-05-07T13:56:29;4.30;;;1.60;;
8104;SDS011;4095;48.942;9.104;2023-05-07T13:58:57;2.33;;;1.40;;
8104;SDS011;4095;48.942;9.104;2023-05-07T14:01:23;2.03;;;1.23;;
8104;SDS011;4095;48.942;9.104;2023-05-07T14:03:48;3.20;;;1.47;;
8104;SDS011;4095;48.942;9.104;2023-05-07T14:06:14;2.47;;;1.50;;
8104;SDS011;4095;48.942;9.104;2023-05-07T14:08:40;1.60;;;1.30;;
8104;SDS011;4095;48.942;9.104;2023-05-07T14:11:05;2.33;;;1.93;;
8104;SDS011;4095;48.942;9.104;2023-05-07T14:13:31;4.40;;;2.27;;
8104;SDS011;4095;48.942;9.104;2023-05-07T14:15:57;1.67;;;1.40;;
8104;SDS011;4095;48.942;9.104;2023-05-07T14:18:23;2.50;;;1.60;;
8104;SDS011;4095;48.942;9.104;2023-05-07T14:20:48;1.77;;;1.40;;
8104;SDS011;4095;48.942;9.104;2023-05-07T14:23:14;1.87;;;1.33;;
8104;SDS011;4095;48.942;9.104;2023-05-07T14:25:41;3.10;;;1.60;;
8104;SDS011;4095;48.942;9.104;2023-05-07T14:28:08;2.33;;;1.63;;
8104;SDS011;4095;48.942;9.104;2023-05-07T14:30:34;2.87;;;1.63;;
8104;SDS011;4095;48.942;9.104;2023-05-07T14:33:00;2.80;;;1.70;;
8104;SDS011;4095;48.942;9.104;2023-05-07T14:35:25;2.50;;;2.03;;
8104;SDS011;4095;48.942;9.104;2023-05-07T14:37:51;2.90;;;2.13;;
8104;SDS011;4095;48.942;9.104;2023-05-07T14:40:16;3.27;;;2.07;;
8104;SDS011;4095;48.942;9.104;2023-05-07T14:42:42;2.63;;;1.97;;
8104;SDS011;4095;48.942;9.104;2023-05-07T14:45:08;2.97;;;2.30;;
8104;SDS011;4095;48.942;9.104;2023-05-07T14:47:34;3.33;;;2.30;;
8104;SDS011;4095;48.942;9.104;2023-05-07T14:49:59;3.00;;;2.27;;
8104;SDS011;4095;48.942;9.104;2023-05-07T14:52:26;3.67;;;2.03;;
8104;SDS011;4095;48.942;9.104;2023-05-07T14:54:51;3.90;;;2.10;;
8104;SDS011;4095;48.942;9.104;2023-05-07T14:57:17;4.37;;;2.40;;
8104;SDS011;4095;48.942;9.104;2023-05-07T14:59:44;2.83;;;2.47;;
8104;SDS011;4095;48.942;9.104;2023-05-07T15:02:11;4.57;;;2.20;;
8104;SDS011;4095;48.942;9.104;2023-05-07T15:04:36;3.53;;;2.40;;
8104;SDS011;4095;48.942;9.104;2023-05-07T15:07:03;5.03;;;2.53;;
8104;SDS011;4095;48.942;9.104;2023-05-07T15:09:29;4.27;;;2.57;;
8104;SDS011;4095;48.942;9.104;2023-05-07T15:11:54;3.23;;;2.60;;
8104;SDS011;4095;48.942;9.104;2023-05-07T15:14:20;5.37;;;2.63;;
8104;SDS011;4095;48.942;9.104;2023-05-07T15:16:46;3.10;;;2.60;;
8104;SDS011;4095;48.942;9.104;2023-05-07T15:19:13;2.93;;;2.20;;
8104;SDS011;4095;48.942;9.104;2023-05-07T15:21:39;4.43;;;2.77;;
8104;SDS011;4095;48.942;9.104;2023-05-07T15:24:05;4.27;;;2.67;;
8104;SDS011;4095;48.942;9.104;2023-05-07T15:26:31;2.77;;;2.33;;
8104;SDS011;4095;48.942;9.104;2023-05-07T15:28:57;3.47;;;2.70;;
8104;SDS011;4095;48.942;9.104;2023-05-07T15:31:25;5.07;;;2.57;;
8104;SDS011;4095;48.942;9.104;2023-05-07T15:33:51;3.90;;;2.50;;
8104;SDS011;4095;48.942;9.104;2023-05-07T15:36:17;5.20;;;2.70;;
8104;SDS011;4095;48.942;9.104;2023-05-07T15:38:43;4.77;;;2.77;;
8104;SDS011;4095;48.942;9.104;2023-05-07T15:41:08;3.30;;;2.70;;
8104;SDS011;4095;48.942;9.104;2023-05-07T15:43:37;3.10;;;2.80;;